Time;durP1;ratioP1;P1;durP2;ratioP2;P2;SDS_P1;SDS_P2;PMS_P1;PMS_P2;Temp;Humidity;BMP_temperature;BMP_pressure;BME280_temperature;BME280_humidity;BME280_pressure;Samples;Min_cycle;Max_cycle;Signal;HPM_P1;HPM_P2
2021/10/13 00:01:20;;;;;;;43.87;40.77;;;9.20;99.90;;;;;;5053473;28;20451;-77
2021/10/13 00:03:47;;;;;;;44.47;41.17;;;9.30;99.90;;;;;;5053503;28;20551;-77
2021/10/13 00:06:14;;;;;;;43.57;40.40;;;9.30;99.90;;;;;;5052960;28;20828;-77
2021/10/13 00:08:41;;;;;;;45.60;42.37;;;9.40;99.90;;;;;;5053112;28;20857;-75
2021/10/13 00:11:07;;;;;;;44.70;41.57;;;9.40;99.90;;;;;;5053270;28;20502;-76
2021/10/13 00:13:34;;;;;;;44.50;41.20;;;9.30;99.90;;;;;;5053058;28;20515;-76
2021/10/13 00:16:01;;;;;;;42.80;39.73;;;9.40;99.90;;;;;;5053224;28;20455;-76
2021/10/13 00:18:29;;;;;;;43.90;40.67;;;9.40;99.90;;;;;;5052863;28;20841;-76
2021/10/13 00:20:56;;;;;;;42.77;39.67;;;9.40;99.90;;;;;;5052859;28;20489;-76
2021/10/13 00:23:22;;;;;;;42.17;39.23;;;9.40;99.90;;;;;;5052982;28;20458;-75
2021/10/13 00:25:49;;;;;;;41.57;38.37;;;9.40;99.90;;;;;;5053052;28;20447;-76
2021/10/13 00:28:16;;;;;;;42.10;39.00;;;9.30;99.90;;;;;;5052409;28;20939;-77
2021/10/13 00:30:42;;;;;;;40.40;37.50;;;9.30;99.90;;;;;;5052576;28;20873;-76
2021/10/13 00:33:09;;;;;;;40.40;37.60;;;9.30;99.90;;;;;;5052944;28;20452;-77
2021/10/13 00:35:37;;;;;;;39.63;36.97;;;9.30;99.90;;;;;;5052917;28;20448;-76
2021/10/13 00:38:04;;;;;;;39.60;36.90;;;9.30;99.90;;;;;;5052958;28;20845;-77
2021/10/13 00:40:30;;;;;;;40.67;37.87;;;9.30;99.90;;;;;;5052662;28;20451;-76
2021/10/13 00:42:57;;;;;;;42.33;39.33;;;9.30;99.90;;;;;;5052551;28;20464;-75
2021/10/13 00:45:24;;;;;;;40.43;37.23;;;9.30;99.90;;;;;;5052477;28;20451;-77
2021/10/13 00:47:51;;;;;;;40.57;37.67;;;9.30;99.90;;;;;;5052640;28;20448;-76
2021/10/13 00:50:18;;;;;;;39.50;36.50;;;9.30;99.90;;;;;;5052151;28;20486;-76
2021/10/13 00:52:46;;;;;;;42.00;38.77;;;9.30;99.90;;;;;;5052246;28;20954;-76
2021/10/13 00:55:19;;;;;;;39.37;36.70;;;9.20;99.90;;;;;;5052413;28;20440;-76
2021/10/13 00:57:46;;;;;;;39.97;36.83;;;9.30;99.90;;;;;;5052262;28;20460;-76
2021/10/13 01:00:14;;;;;;;40.40;37.33;;;9.40;99.90;;;;;;5052093;28;20456;-76
2021/10/13 01:02:49;;;;;;;40.70;37.63;;;9.30;99.90;;;;;;5052178;28;20462;-76
2021/10/13 01:05:38;;;;;;;39.50;36.47;;;9.30;99.90;;;;;;5057661;28;20929;-76
2021/10/13 01:08:13;;;;;;;38.47;35.50;;;9.30;99.90;;;;;;5072167;28;20455;-76
2021/10/13 01:10:50;;;;;;;37.57;34.63;;;9.20;99.90;;;;;;5071738;28;20479;-75
2021/10/13 01:13:25;;;;;;;38.03;35.13;;;9.20;99.90;;;;;;5071871;28;20454;-76
2021/10/13 01:16:00;;;;;;;37.70;35.00;;;9.10;99.90;;;;;;5072227;28;20443;-76
2021/10/13 01:18:33;;;;;;;36.97;34.17;;;9.10;99.90;;;;;;5071579;28;20499;-76
2021/10/13 01:21:08;;;;;;;37.50;34.90;;;9.10;99.90;;;;;;5071767;28;20467;-75
2021/10/13 01:24:03;;;;;;;37.53;34.57;;;9.10;99.90;;;;;;5072025;28;20443;-75
2021/10/13 01:26:37;;;;;;;36.67;33.97;;;9.20;99.90;;;;;;5071724;28;20452;-76
2021/10/13 01:29:10;;;;;;;35.10;32.50;;;9.20;99.90;;;;;;5071654;28;20848;-77
2021/10/13 01:31:41;;;;;;;35.80;32.90;;;9.20;99.90;;;;;;5070987;28;20504;-76
2021/10/13 01:34:12;;;;;;;34.33;31.73;;;9.30;99.90;;;;;;5071135;28;20937;-76
2021/10/13 01:36:44;;;;;;;34.37;31.63;;;9.30;99.90;;;;;;5071058;28;20452;-77
2021/10/13 01:39:12;;;;;;;35.70;32.70;;;9.30;99.90;;;;;;5070914;28;20863;-76
2021/10/13 01:41:47;;;;;;;31.17;28.70;;;9.30;99.90;;;;;;5071102;28;20446;-76
2021/10/13 01:44:18;;;;;;;32.47;29.57;;;9.20;99.90;;;;;;5070760;28;20450;-78
2021/10/13 01:46:46;;;;;;;33.60;31.00;;;9.20;99.90;;;;;;5070741;28;20457;-77
2021/10/13 01:49:15;;;;;;;32.37;30.03;;;9.20;99.90;;;;;;5070924;28;20482;-78
2021/10/13 01:51:43;;;;;;;32.27;29.87;;;9.20;99.90;;;;;;5070578;28;20512;-78
2021/10/13 01:54:12;;;;;;;32.27;29.77;;;9.20;99.90;;;;;;5070805;28;20448;-77
2021/10/13 01:56:39;;;;;;;31.97;29.53;;;9.20;99.90;;;;;;5070740;28;20459;-77
2021/10/13 01:59:09;;;;;;;31.20;28.80;;;9.20;99.90;;;;;;5070831;28;20447;-77
2021/10/13 02:01:39;;;;;;;31.27;28.97;;;9.20;99.90;;;;;;5070575;28;20570;-79
2021/10/13 02:04:10;;;;;;;30.17;27.67;;;9.10;99.90;;;;;;5070949;28;20451;-78
2021/10/13 02:06:41;;;;;;;28.60;26.33;;;9.10;99.90;;;;;;5053261;28;20456;-78
2021/10/13 02:09:09;;;;;;;28.70;26.63;;;9.00;99.90;;;;;;5050323;28;20444;-78
2021/10/13 02:11:36;;;;;;;27.00;24.90;;;9.00;99.90;;;;;;5057733;28;20484;-77
2021/10/13 02:14:06;;;;;;;28.07;25.60;;;9.10;99.90;;;;;;5060284;28;20554;-78
2021/10/13 02:16:34;;;;;;;27.10;25.10;;;9.10;99.90;;;;;;5061577;28;20481;-77
2021/10/13 02:19:03;;;;;;;28.13;25.97;;;9.00;99.90;;;;;;5060485;28;20443;-76
2021/10/13 02:21:32;;;;;;;29.33;26.80;;;9.10;99.90;;;;;;5058658;28;20467;-77
2021/10/13 02:23:59;;;;;;;26.37;24.53;;;9.10;99.90;;;;;;5070986;28;20793;-76
2021/10/13 02:26:31;;;;;;;27.73;25.73;;;9.10;99.90;;;;;;5070576;28;20820;-76
2021/10/13 02:29:05;;;;;;;28.50;26.20;;;9.10;99.90;;;;;;5070630;28;20454;-76
2021/10/13 02:31:33;;;;;;;26.17;24.23;;;9.20;99.90;;;;;;5070681;28;20490;-76
2021/10/13 02:34:00;;;;;;;25.50;23.70;;;9.10;99.90;;;;;;5070943;28;20759;-79
2021/10/13 02:36:28;;;;;;;26.73;24.90;;;9.20;99.90;;;;;;5070553;28;20933;-82
2021/10/13 02:38:55;;;;;;;27.53;25.43;;;9.20;99.90;;;;;;5070721;28;20460;-76
2021/10/13 02:41:22;;;;;;;27.40;25.20;;;9.20;99.90;;;;;;5071001;28;20451;-76
2021/10/13 02:43:49;;;;;;;24.90;23.20;;;9.20;99.90;;;;;;5071290;28;20447;-76
2021/10/13 02:46:23;;;;;;;26.97;24.73;;;9.20;99.90;;;;;;5070810;28;20447;-76
2021/10/13 02:48:57;;;;;;;25.30;23.50;;;9.20;99.90;;;;;;5070717;28;20507;-76
2021/10/13 02:51:35;;;;;;;27.03;25.20;;;9.30;99.90;;;;;;5070806;28;20483;-76
2021/10/13 02:54:08;;;;;;;25.70;23.70;;;9.20;99.90;;;;;;5070829;28;20478;-76
2021/10/13 02:56:39;;;;;;;24.43;22.53;;;9.30;99.90;;;;;;5070820;28;20896;-77
2021/10/13 02:59:11;;;;;;;24.90;22.83;;;9.30;99.90;;;;;;5070909;28;20443;-77
2021/10/13 03:01:40;;;;;;;26.67;24.57;;;9.30;99.90;;;;;;5070706;28;20448;-78
2021/10/13 03:04:11;;;;;;;28.03;25.60;;;9.30;99.90;;;;;;5070582;28;20919;-77
2021/10/13 03:06:44;;;;;;;26.13;24.03;;;9.30;99.90;;;;;;5070781;28;20790;-78
2021/10/13 03:09:11;;;;;;;25.87;23.70;;;9.40;99.90;;;;;;5070500;28;20474;-78
2021/10/13 03:11:39;;;;;;;25.10;23.30;;;9.30;99.90;;;;;;5070462;28;20486;-79
2021/10/13 03:14:08;;;;;;;23.77;22.07;;;9.40;99.90;;;;;;5070437;28;20453;-78
2021/10/13 03:16:35;;;;;;;23.73;21.97;;;9.40;99.90;;;;;;5070283;28;20878;-78
2021/10/13 03:19:02;;;;;;;26.10;24.07;;;9.30;99.90;;;;;;5070282;28;20543;-78
2021/10/13 03:21:30;;;;;;;26.83;24.57;;;9.40;99.90;;;;;;5070029;28;20507;-78
2021/10/13 03:23:58;;;;;;;25.30;23.50;;;9.40;99.90;;;;;;5070247;28;20956;-78
2021/10/13 03:26:25;;;;;;;25.00;23.30;;;9.40;99.90;;;;;;5070168;28;20470;-78
2021/10/13 03:28:52;;;;;;;25.57;23.50;;;9.40;99.90;;;;;;5070231;28;20458;-77
2021/10/13 03:31:19;;;;;;;26.80;24.57;;;9.30;99.90;;;;;;5073211;28;20488;-78
2021/10/13 03:33:49;;;;;;;26.10;24.20;;;9.30;99.90;;;;;;5074016;28;20451;-78
2021/10/13 03:36:16;;;;;;;25.20;23.30;;;9.20;99.90;;;;;;5073732;28;20470;-81
2021/10/13 03:38:43;;;;;;;26.60;24.50;;;9.30;99.90;;;;;;5074252;28;20461;-81
2021/10/13 03:41:11;;;;;;;26.93;24.73;;;9.20;99.90;;;;;;5073787;28;20446;-80
2021/10/13 03:43:49;;;;;;;24.43;22.53;;;9.20;99.90;;;;;;5073893;28;20445;-81
2021/10/13 03:46:20;;;;;;;25.00;22.80;;;9.10;99.90;;;;;;5073763;28;20454;-81
2021/10/13 03:48:50;;;;;;;24.73;23.03;;;9.00;99.90;;;;;;5073700;28;20468;-82
2021/10/13 03:51:16;;;;;;;26.77;24.33;;;9.00;99.90;;;;;;5073529;28;20867;-82
2021/10/13 03:53:43;;;;;;;25.83;23.43;;;9.00;99.90;;;;;;5073946;28;20807;-81
2021/10/13 03:56:11;;;;;;;25.63;23.63;;;9.00;99.90;;;;;;5073494;28;20451;-82
2021/10/13 03:58:38;;;;;;;25.93;23.93;;;8.90;99.90;;;;;;5073421;28;20450;-82
2021/10/13 04:01:05;;;;;;;29.47;26.83;;;9.00;99.90;;;;;;5073763;28;20455;-88
2021/10/13 04:03:32;;;;;;;26.03;24.03;;;9.00;99.90;;;;;;5074487;28;20500;-86
2021/10/13 04:05:59;;;;;;;26.43;24.23;;;8.90;99.90;;;;;;5073814;28;20449;-85
2021/10/13 04:08:26;;;;;;;28.20;25.60;;;8.90;99.90;;;;;;5073554;28;20451;-84
2021/10/13 04:10:52;;;;;;;25.50;23.60;;;8.90;99.90;;;;;;5073516;28;20451;-85
2021/10/13 04:13:20;;;;;;;25.57;23.17;;;9.00;99.90;;;;;;5073508;28;20482;-86
2021/10/13 04:15:47;;;;;;;24.20;22.40;;;8.90;99.90;;;;;;5073065;28;20455;-82
2021/10/13 04:18:14;;;;;;;25.90;23.67;;;8.90;99.90;;;;;;5073133;28;20447;-81
2021/10/13 04:20:41;;;;;;;26.60;24.10;;;8.90;99.90;;;;;;5073104;28;20479;-81
2021/10/13 04:23:07;;;;;;;25.87;23.70;;;8.90;99.90;;;;;;5073041;28;20446;-81
2021/10/13 04:25:34;;;;;;;24.77;22.70;;;8.90;99.90;;;;;;5073228;28;20449;-80
2021/10/13 04:28:01;;;;;;;25.33;23.27;;;8.90;99.90;;;;;;5072985;28;20467;-80
2021/10/13 04:30:29;;;;;;;26.47;23.80;;;9.00;99.90;;;;;;5072908;28;20530;-80
2021/10/13 04:32:55;;;;;;;24.10;22.00;;;9.00;99.90;;;;;;5072632;28;20570;-81
2021/10/13 04:35:22;;;;;;;27.10;24.83;;;9.00;99.90;;;;;;5073069;28;20450;-79
2021/10/13 04:37:49;;;;;;;25.83;23.50;;;8.90;99.90;;;;;;5073037;28;20960;-78
2021/10/13 04:40:16;;;;;;;26.47;24.00;;;8.90;99.90;;;;;;5072302;28;20984;-78
2021/10/13 04:42:43;;;;;;;27.00;24.70;;;8.90;99.90;;;;;;5072601;28;20439;-79
2021/10/13 04:45:10;;;;;;;27.53;25.13;;;8.90;99.90;;;;;;5072775;28;20517;-78
2021/10/13 04:47:38;;;;;;;25.57;23.33;;;8.80;99.90;;;;;;5072668;28;20554;-79
2021/10/13 04:50:06;;;;;;;27.93;25.43;;;8.80;99.90;;;;;;5072667;28;20937;-79
2021/10/13 04:52:32;;;;;;;27.57;25.23;;;8.80;99.90;;;;;;5072167;28;20479;-79
2021/10/13 04:54:59;;;;;;;26.40;24.20;;;8.80;99.90;;;;;;5072536;28;20451;-78
2021/10/13 04:57:26;;;;;;;27.67;24.80;;;8.70;99.90;;;;;;5072299;28;20463;-79
2021/10/13 04:59:54;;;;;;;26.67;24.20;;;8.70;99.90;;;;;;5072590;28;20455;-78
2021/10/13 05:02:21;;;;;;;27.97;25.37;;;8.70;99.90;;;;;;5072304;28;20451;-79
2021/10/13 05:04:49;;;;;;;29.03;26.37;;;8.70;99.90;;;;;;5072171;28;20477;-78
2021/10/13 05:07:16;;;;;;;26.53;24.20;;;8.70;99.90;;;;;;5072534;28;20454;-78
2021/10/13 05:09:43;;;;;;;28.37;25.97;;;8.70;99.90;;;;;;5072353;28;20529;-76
2021/10/13 05:12:10;;;;;;;25.07;22.87;;;8.80;99.90;;;;;;5072086;28;21001;-76
2021/10/13 05:14:36;;;;;;;25.27;23.27;;;8.70;99.90;;;;;;5072213;28;20820;-76
2021/10/13 05:17:03;;;;;;;25.50;23.43;;;8.70;99.90;;;;;;5072111;28;20454;-76
2021/10/13 05:19:30;;;;;;;27.00;24.53;;;8.60;99.90;;;;;;5072142;28;20455;-76
2021/10/13 05:21:58;;;;;;;25.53;23.30;;;8.60;99.90;;;;;;5072396;28;20470;-76
2021/10/13 05:24:25;;;;;;;27.00;24.30;;;8.60;99.90;;;;;;5072037;28;20451;-76
2021/10/13 05:26:51;;;;;;;28.80;26.33;;;8.50;99.90;;;;;;5072189;28;20451;-77
2021/10/13 05:29:18;;;;;;;27.47;25.10;;;8.60;99.90;;;;;;5071740;28;20940;-76
2021/10/13 05:31:45;;;;;;;27.03;24.83;;;8.60;99.90;;;;;;5071615;28;20989;-76
2021/10/13 05:34:11;;;;;;;26.93;24.63;;;8.60;99.90;;;;;;5071686;28;20995;-78
2021/10/13 05:36:38;;;;;;;27.73;25.10;;;8.60;99.90;;;;;;5071824;28;20848;-77
2021/10/13 05:39:06;;;;;;;29.07;26.67;;;8.60;99.90;;;;;;5071913;28;20606;-77
2021/10/13 05:41:33;;;;;;;25.93;23.53;;;8.60;99.90;;;;;;5071948;28;20450;-77
2021/10/13 05:43:59;;;;;;;28.20;25.47;;;8.70;99.90;;;;;;5071569;28;20455;-77
2021/10/13 05:46:26;;;;;;;28.37;26.07;;;8.70;99.90;;;;;;5071458;28;20936;-77
2021/10/13 05:48:53;;;;;;;28.80;26.20;;;8.70;99.90;;;;;;5072020;28;20458;-77
2021/10/13 05:51:20;;;;;;;27.00;24.80;;;8.70;99.90;;;;;;5073061;28;20443;-75
2021/10/13 05:53:46;;;;;;;28.23;25.80;;;8.80;99.90;;;;;;5070371;28;20490;-74
2021/10/13 05:56:14;;;;;;;27.43;25.17;;;8.80;99.90;;;;;;5070990;28;20447;-77
2021/10/13 05:58:41;;;;;;;28.30;25.90;;;8.90;99.90;;;;;;5071226;28;20472;-78
2021/10/13 06:01:08;;;;;;;27.30;25.10;;;8.80;99.90;;;;;;5071513;28;20552;-78
2021/10/13 06:03:35;;;;;;;33.70;28.40;;;8.90;99.90;;;;;;5071379;28;20957;-79
2021/10/13 06:06:02;;;;;;;28.13;25.50;;;9.00;99.90;;;;;;5071183;28;20966;-79
2021/10/13 06:08:28;;;;;;;28.90;26.03;;;9.10;99.90;;;;;;5071068;28;20571;-79
2021/10/13 06:10:55;;;;;;;28.60;25.83;;;9.10;99.90;;;;;;5071104;28;20809;-74
2021/10/13 06:13:23;;;;;;;26.87;24.43;;;9.10;99.90;;;;;;5071231;28;21009;-73
2021/10/13 06:15:51;;;;;;;29.60;26.60;;;9.10;99.90;;;;;;5071264;28;20860;-73
2021/10/13 06:30:24;;;;;;;27.50;24.90;;;8.20;99.90;;;;;;5088751;28;20611;-77
2021/10/13 06:32:51;;;;;;;27.63;25.13;;;8.50;99.90;;;;;;5088686;28;20434;-77
2021/10/13 06:35:17;;;;;;;27.00;24.53;;;8.60;99.90;;;;;;5087828;28;20445;-74
2021/10/13 06:37:46;;;;;;;24.67;21.73;;;8.60;99.90;;;;;;5086989;28;20442;-72
2021/10/13 06:40:13;;;;;;;28.00;25.20;;;8.70;99.90;;;;;;5086366;28;20608;-74
2021/10/13 06:42:41;;;;;;;25.67;23.40;;;8.80;99.90;;;;;;5085162;28;20503;-73
2021/10/13 06:45:09;;;;;;;23.03;20.93;;;9.00;99.90;;;;;;5086796;28;20490;-76
2021/10/13 06:47:37;;;;;;;26.73;23.70;;;9.00;99.90;;;;;;5086072;28;20868;-74
2021/10/13 06:50:04;;;;;;;25.60;23.10;;;9.20;99.90;;;;;;5088284;28;20485;-73
2021/10/13 06:52:31;;;;;;;26.73;24.07;;;9.40;99.90;;;;;;5090759;28;20450;-74
2021/10/13 06:54:58;;;;;;;24.63;22.40;;;9.50;99.90;;;;;;5090524;28;20448;-73
2021/10/13 06:57:25;;;;;;;23.33;21.30;;;9.70;99.90;;;;;;5088885;28;20457;-73
2021/10/13 06:59:51;;;;;;;21.80;20.20;;;9.90;99.90;;;;;;5088558;28;20442;-73
2021/10/13 07:02:18;;;;;;;22.20;20.50;;;9.90;99.90;;;;;;5088066;28;20455;-73
2021/10/13 07:04:46;;;;;;;25.30;23.30;;;9.80;99.90;;;;;;5087883;28;20449;-73
2021/10/13 07:07:13;;;;;;;22.70;20.80;;;9.90;99.90;;;;;;5087750;28;20457;-73
2021/10/13 07:09:39;;;;;;;24.80;22.60;;;9.90;99.90;;;;;;5087450;28;20535;-73
2021/10/13 07:12:06;;;;;;;25.27;23.20;;;10.10;99.90;;;;;;5087703;28;20814;-73
2021/10/13 07:14:33;;;;;;;24.70;22.43;;;10.40;99.90;;;;;;5087952;28;20464;-73
2021/10/13 07:17:00;;;;;;;22.97;21.03;;;10.60;99.90;;;;;;5087607;28;20442;-74
2021/10/13 07:19:26;;;;;;;19.50;18.10;;;10.80;99.90;;;;;;5087594;28;20442;-73
2021/10/13 07:21:54;;;;;;;18.87;17.50;;;10.90;99.90;;;;;;5087819;28;20849;-74
2021/10/13 07:24:21;;;;;;;20.57;18.80;;;11.00;99.90;;;;;;5087697;28;20454;-74
2021/10/13 07:26:48;;;;;;;19.50;18.00;;;11.30;99.90;;;;;;5087632;28;20442;-74
2021/10/13 07:29:14;;;;;;;20.80;18.90;;;11.80;99.90;;;;;;5087165;28;20854;-74
2021/10/13 07:31:41;;;;;;;19.17;17.77;;;11.70;99.90;;;;;;5087386;28;20449;-73
2021/10/13 07:34:08;;;;;;;18.90;17.33;;;11.70;99.90;;;;;;5087204;28;20446;-74
2021/10/13 07:36:35;;;;;;;20.27;18.90;;;11.70;99.90;;;;;;5087469;28;20477;-74
2021/10/13 07:39:05;;;;;;;20.67;19.07;;;11.60;99.90;;;;;;5085550;28;20457;-74
2021/10/13 07:41:32;;;;;;;18.97;17.60;;;11.40;99.90;;;;;;5074605;28;20447;-74
2021/10/13 07:43:58;;;;;;;19.80;18.30;;;11.10;99.90;;;;;;5073755;28;20673;-74
2021/10/13 07:46:25;;;;;;;21.27;19.53;;;11.10;99.90;;;;;;5073534;28;20450;-74
2021/10/13 07:48:52;;;;;;;18.97;17.73;;;11.10;99.90;;;;;;5073491;28;20474;-74
2021/10/13 07:51:20;;;;;;;20.10;18.60;;;11.00;99.90;;;;;;5073655;28;20458;-75
2021/10/13 07:53:47;;;;;;;17.57;16.30;;;11.40;99.90;;;;;;5073269;28;20516;-75
2021/10/13 07:56:15;;;;;;;18.90;17.60;;;12.10;99.90;;;;;;5073338;28;20877;-74
2021/10/13 07:58:41;;;;;;;17.67;16.47;;;13.10;99.90;;;;;;5073041;28;20451;-75
2021/10/13 08:01:08;;;;;;;17.30;16.00;;;13.90;99.90;;;;;;5073154;28;20526;-75
2021/10/13 08:03:35;;;;;;;17.17;16.27;;;14.50;99.90;;;;;;5073370;28;20589;-74
2021/10/13 08:06:01;;;;;;;18.90;17.40;;;14.30;99.90;;;;;;5073246;28;20793;-74
2021/10/13 08:08:28;;;;;;;18.00;16.60;;;14.00;99.90;;;;;;5072798;28;20447;-75
2021/10/13 08:10:55;;;;;;;17.97;16.87;;;13.80;99.90;;;;;;5072767;28;20968;-74
2021/10/13 08:13:23;;;;;;;18.00;16.80;;;13.90;99.90;;;;;;5073054;28;20844;-75
2021/10/13 08:15:49;;;;;;;18.80;17.53;;;13.80;99.90;;;;;;5073118;28;20455;-74
2021/10/13 08:18:16;;;;;;;18.97;17.77;;;13.50;99.90;;;;;;5072959;28;20823;-74
2021/10/13 08:20:43;;;;;;;19.03;17.73;;;13.20;99.90;;;;;;5072784;28;20475;-74
2021/10/13 08:23:10;;;;;;;20.73;19.03;;;13.20;99.90;;;;;;5072834;28;20451;-75
2021/10/13 08:25:36;;;;;;;19.60;18.30;;;13.60;99.90;;;;;;5072917;28;20455;-75
2021/10/13 08:28:03;;;;;;;22.57;20.77;;;14.60;99.90;;;;;;5072565;28;20447;-74
2021/10/13 08:30:31;;;;;;;19.10;17.70;;;15.50;99.90;;;;;;5072663;28;20490;-74
2021/10/13 08:32:59;;;;;;;20.10;18.50;;;16.20;99.90;;;;;;5072616;28;20443;-74
2021/10/13 08:35:25;;;;;;;19.57;18.37;;;16.60;99.90;;;;;;5072765;28;20443;-74
2021/10/13 08:37:52;;;;;;;19.67;18.10;;;16.90;99.90;;;;;;5072827;28;20451;-73
2021/10/13 08:40:19;;;;;;;19.03;17.73;;;16.20;99.90;;;;;;5072577;28;20859;-73
2021/10/13 08:42:53;;;;;;;18.90;17.60;;;15.10;99.90;;;;;;5072191;28;20443;-73
2021/10/13 08:45:20;;;;;;;21.20;19.53;;;13.80;99.90;;;;;;5072383;28;20824;-73
2021/10/13 08:47:48;;;;;;;20.30;18.90;;;13.50;99.90;;;;;;5072391;28;20450;-73
2021/10/13 08:50:15;;;;;;;22.17;20.37;;;13.70;99.90;;;;;;5072237;28;20498;-73
2021/10/13 08:52:42;;;;;;;21.00;19.40;;;14.10;99.90;;;;;;5071349;28;20455;-74
2021/10/13 08:55:09;;;;;;;19.23;17.67;;;14.60;99.90;;;;;;5072310;28;20455;-74
2021/10/13 08:57:36;;;;;;;20.53;18.87;;;15.10;99.90;;;;;;5072271;28;21016;-73
2021/10/13 09:00:03;;;;;;;19.73;18.37;;;16.00;99.90;;;;;;5072235;28;20447;-73
2021/10/13 09:02:39;;;;;;;20.63;18.90;;;16.60;99.90;;;;;;5071910;28;20825;-74
2021/10/13 09:05:09;;;;;;;19.93;18.53;;;16.60;99.90;;;;;;5071908;28;20451;-73
2021/10/13 09:07:37;;;;;;;19.93;18.73;;;16.90;99.90;;;;;;5071622;28;20447;-74
2021/10/13 09:10:04;;;;;;;21.57;19.87;;;17.40;99.90;;;;;;5071745;28;20487;-74
2021/10/13 09:12:32;;;;;;;19.80;18.50;;;17.50;99.20;;;;;;5071519;28;20526;-74
2021/10/13 09:15:11;;;;;;;22.23;20.43;;;16.50;99.90;;;;;;5071651;28;20537;-74
2021/10/13 09:17:54;;;;;;;20.20;18.90;;;15.80;99.90;;;;;;5071664;28;20964;-75
2021/10/13 09:20:24;;;;;;;20.57;19.27;;;15.20;99.90;;;;;;5071681;28;20474;-73
2021/10/13 09:22:59;;;;;;;19.80;18.13;;;14.70;99.90;;;;;;5071799;28;20451;-74
2021/10/13 09:25:27;;;;;;;20.63;18.83;;;14.40;99.90;;;;;;5071454;28;20455;-74
2021/10/13 09:27:54;;;;;;;20.67;19.07;;;14.00;99.90;;;;;;5071156;28;20451;-73
2021/10/13 09:30:27;;;;;;;20.77;18.90;;;13.90;99.90;;;;;;5071460;28;20996;-73
2021/10/13 09:32:54;;;;;;;19.83;18.13;;;13.80;99.90;;;;;;5071552;28;20459;-74
2021/10/13 09:35:29;;;;;;;16.57;15.07;;;13.70;99.90;;;;;;5071619;28;20569;-73
2021/10/13 09:37:55;;;;;;;16.90;15.60;;;13.30;99.90;;;;;;5071255;28;20852;-73
2021/10/13 09:40:27;;;;;;;18.27;16.43;;;13.30;99.90;;;;;;5071303;28;20446;-74
2021/10/13 09:42:58;;;;;;;15.93;14.97;;;13.60;99.90;;;;;;5071110;28;20451;-74
2021/10/13 09:45:26;;;;;;;16.40;15.20;;;13.90;99.90;;;;;;5071158;28;20451;-75
2021/10/13 09:47:59;;;;;;;16.13;14.80;;;14.40;99.90;;;;;;5071365;28;20483;-75
2021/10/13 09:50:39;;;;;;;15.60;14.70;;;14.80;99.90;;;;;;5071079;28;20514;-75
2021/10/13 09:53:17;;;;;;;12.40;11.80;;;15.40;99.90;;;;;;5071113;28;20447;-72
2021/10/13 09:55:44;;;;;;;13.37;12.50;;;15.50;99.90;;;;;;5071067;28;20458;-72
2021/10/13 09:58:23;;;;;;;12.63;12.03;;;15.30;99.90;;;;;;5071070;28;20837;-73
2021/10/13 10:00:49;;;;;;;11.70;11.20;;;15.80;99.70;;;;;;5071347;28;20944;-73
2021/10/13 10:03:18;;;;;;;11.43;10.83;;;16.30;99.30;;;;;;5070911;28;20447;-74
2021/10/13 10:05:47;;;;;;;11.97;11.47;;;16.40;97.30;;;;;;5071033;28;20455;-73
2021/10/13 10:08:14;;;;;;;12.00;11.30;;;16.90;97.00;;;;;;5070704;28;20937;-73
2021/10/13 10:11:03;;;;;;;11.80;11.20;;;16.60;95.30;;;;;;5070872;28;20489;-73
2021/10/13 10:13:35;;;;;;;12.97;11.87;;;16.10;95.90;;;;;;5070796;28;20447;-73
2021/10/13 10:16:01;;;;;;;11.80;11.30;;;16.50;95.80;;;;;;5070821;28;20490;-73
2021/10/13 10:18:32;;;;;;;11.97;11.47;;;16.80;95.50;;;;;;5070888;28;20450;-73
2021/10/13 10:21:22;;;;;;;13.10;12.30;;;17.80;95.00;;;;;;5070717;28;20471;-73
2021/10/13 10:23:50;;;;;;;13.00;12.30;;;19.40;92.00;;;;;;5071058;28;20447;-75
2021/10/13 10:26:34;;;;;;;14.10;13.30;;;18.70;91.90;;;;;;5070565;28;20929;-74
2021/10/13 10:29:03;;;;;;;13.00;12.17;;;19.20;92.30;;;;;;5070575;28;20518;-75
2021/10/13 10:31:39;;;;;;;13.30;12.50;;;19.50;90.40;;;;;;5070594;28;20486;-74
2021/10/13 10:34:17;;;;;;;12.60;11.90;;;20.60;88.50;;;;;;5070898;28;20474;-73
2021/10/13 10:37:11;;;;;;;14.90;13.87;;;21.10;83.50;;;;;;5070598;28;20458;-74
2021/10/13 10:40:04;;;;;;;13.23;12.30;;;20.70;80.00;;;;;;5070683;28;20542;-73
2021/10/13 10:42:54;;;;;;;15.63;14.30;;;20.50;82.80;;;;;;5070662;28;20925;-74
2021/10/13 10:45:23;;;;;;;16.53;15.53;;;20.00;86.50;;;;;;5070704;28;20975;-73
2021/10/13 10:47:55;;;;;;;20.07;18.43;;;18.20;91.80;;;;;;5070786;28;20856;-73
2021/10/13 10:50:29;;;;;;;18.60;17.33;;;17.70;93.90;;;;;;5070664;28;20479;-73
2021/10/13 10:53:27;;;;;;;16.90;15.80;;;16.90;94.60;;;;;;5070486;28;20446;-73
2021/10/13 10:55:55;;;;;;;17.37;16.27;;;16.70;96.50;;;;;;5070446;28;20477;-73
2021/10/13 10:58:25;;;;;;;13.37;12.47;;;16.40;96.10;;;;;;5070638;28;20458;-73
2021/10/13 11:01:04;;;;;;;13.73;12.87;;;16.40;94.10;;;;;;5070982;28;20447;-74
2021/10/13 11:03:36;;;;;;;14.63;13.73;;;16.50;93.50;;;;;;5070726;28;20454;-74
2021/10/13 11:06:17;;;;;;;16.53;15.43;;;16.60;94.30;;;;;;5070578;28;20489;-74
2021/10/13 11:09:02;;;;;;;18.33;16.70;;;16.30;95.80;;;;;;5070611;28;20937;-74
2021/10/13 11:11:32;;;;;;;19.43;17.93;;;15.80;97.60;;;;;;5070342;28;20487;-74
2021/10/13 11:14:01;;;;;;;18.50;17.13;;;15.40;99.10;;;;;;5070608;28;20455;-74
2021/10/13 11:16:28;;;;;;;21.10;19.50;;;15.20;99.90;;;;;;5073058;28;20450;-74
2021/10/13 11:19:05;;;;;;;19.67;17.83;;;14.80;99.90;;;;;;5074262;28;20455;-74
2021/10/13 11:21:32;;;;;;;18.60;16.97;;;14.90;99.90;;;;;;5074085;28;20465;-75
2021/10/13 11:24:00;;;;;;;17.77;16.60;;;15.00;99.90;;;;;;5073987;28;20524;-74
2021/10/13 11:26:27;;;;;;;17.67;16.17;;;15.20;99.90;;;;;;5073994;28;20447;-74
2021/10/13 11:28:54;;;;;;;19.03;17.23;;;15.40;99.90;;;;;;5073732;28;21018;-73
2021/10/13 11:31:21;;;;;;;18.00;16.70;;;15.60;99.40;;;;;;5073875;28;20897;-72
2021/10/13 11:33:48;;;;;;;19.10;17.60;;;15.60;99.10;;;;;;5073804;28;20492;-73
2021/10/13 11:36:15;;;;;;;16.33;15.37;;;15.80;99.30;;;;;;5073991;28;20462;-73
2021/10/13 11:38:42;;;;;;;16.93;15.83;;;17.50;97.20;;;;;;5074576;28;20815;-73
2021/10/13 11:41:13;;;;;;;15.97;14.97;;;18.30;94.10;;;;;;5074382;28;20937;-74
2021/10/13 11:43:41;;;;;;;15.13;14.33;;;18.90;93.80;;;;;;5074241;28;20462;-74
2021/10/13 11:46:09;;;;;;;16.53;15.17;;;17.90;93.40;;;;;;5073658;28;20454;-74
2021/10/13 11:48:37;;;;;;;15.83;14.43;;;17.10;95.30;;;;;;5073700;28;20939;-73
2021/10/13 11:51:09;;;;;;;15.43;14.70;;;16.10;96.30;;;;;;5073293;28;20485;-74
2021/10/13 11:53:36;;;;;;;14.53;13.73;;;16.00;97.30;;;;;;5073668;28;20766;-73
2021/10/13 11:56:11;;;;;;;13.73;13.03;;;15.80;97.80;;;;;;5073443;28;20554;-73
2021/10/13 11:58:39;;;;;;;13.90;13.10;;;15.70;97.90;;;;;;5073236;28;20839;-73
2021/10/13 12:01:05;;;;;;;13.27;12.30;;;15.30;98.10;;;;;;5073393;28;20451;-73
2021/10/13 12:03:33;;;;;;;11.33;10.73;;;14.80;97.70;;;;;;5073432;28;20451;-73
2021/10/13 12:06:01;;;;;;;11.40;10.80;;;14.70;97.90;;;;;;5073178;28;20443;-74
2021/10/13 12:08:31;;;;;;;11.97;11.37;;;15.40;97.10;;;;;;5073116;28;20464;-74
2021/10/13 12:11:07;;;;;;;12.00;11.40;;;17.60;94.50;;;;;;5072891;28;20487;-75
2021/10/13 12:13:37;;;;;;;11.93;11.43;;;19.80;91.70;;;;;;5073318;28;20961;-74
2021/10/13 12:16:06;;;;;;;13.40;12.60;;;21.00;89.80;;;;;;5073213;28;20451;-75
2021/10/13 12:18:35;;;;;;;11.20;10.70;;;21.10;83.80;;;;;;5073008;28;20967;-74
2021/10/13 12:21:12;;;;;;;10.53;10.00;;;19.30;81.30;;;;;;5072790;28;20544;-74
2021/10/13 12:23:44;;;;;;;10.80;10.40;;;17.60;88.00;;;;;;5072943;28;20458;-73
2021/10/13 12:26:14;;;;;;;10.70;10.30;;;16.30;91.70;;;;;;5072566;28;21019;-73
2021/10/13 12:28:42;;;;;;;12.17;11.57;;;15.80;94.00;;;;;;5072974;28;20475;-73
2021/10/13 12:31:11;;;;;;;10.43;10.03;;;15.70;94.50;;;;;;5072795;28;20451;-73
2021/10/13 12:33:43;;;;;;;10.73;10.23;;;15.50;94.20;;;;;;5063841;28;20474;-74
2021/10/13 12:36:13;;;;;;;10.00;9.60;;;15.30;94.70;;;;;;5053124;28;20926;-73
2021/10/13 12:38:47;;;;;;;10.40;9.80;;;15.10;95.20;;;;;;5052769;28;20814;-74
2021/10/13 12:41:14;;;;;;;11.80;11.13;;;15.20;94.50;;;;;;5050874;28;20774;-74
2021/10/13 12:43:44;;;;;;;9.10;8.60;;;15.00;94.60;;;;;;5052068;28;20861;-73
2021/10/13 12:46:31;;;;;;;10.43;9.87;;;14.40;96.50;;;;;;5051834;28;20505;-73
2021/10/13 12:48:59;;;;;;;10.60;10.10;;;14.40;98.20;;;;;;5051671;28;20732;-74
2021/10/13 12:51:26;;;;;;;10.40;9.67;;;14.70;98.80;;;;;;5052016;28;20444;-74
2021/10/13 12:53:53;;;;;;;9.60;9.20;;;14.60;98.40;;;;;;5052215;28;20448;-73
2021/10/13 12:56:23;;;;;;;9.30;8.80;;;14.60;97.90;;;;;;5052134;28;20555;-74